createdAt,value
2022-09-21T00:04:07.476Z,99.90
2022-09-21T00:09:06.154Z,99.90
2022-09-21T00:11:35.240Z,99.90
2022-09-21T00:14:05.471Z,99.90
2022-09-21T00:24:00.587Z,99.90
2022-09-21T00:26:29.671Z,99.90
2022-09-21T00:29:00.405Z,99.90
2022-09-21T00:31:30.021Z,99.90
2022-09-21T00:34:00.157Z,99.90
2022-09-21T00:36:29.032Z,99.90
2022-09-21T00:39:00.930Z,99.90
2022-09-21T00:41:30.650Z,99.90
2022-09-21T00:44:25.309Z,99.90
2022-09-21T00:46:54.917Z,99.90
2022-09-21T00:51:53.241Z,99.90
2022-09-21T00:54:26.696Z,99.90
2022-09-21T00:56:56.401Z,99.90
2022-09-21T00:59:29.398Z,99.90
2022-09-21T01:01:59.066Z,99.90
2022-09-21T01:04:28.280Z,99.90
2022-09-21T01:06:57.746Z,99.90
2022-09-21T01:09:27.744Z,99.90
2022-09-21T01:12:08.334Z,99.90
2022-09-21T01:15:14.755Z,99.90
2022-09-21T01:17:50.902Z,99.90
2022-09-21T01:20:43.652Z,99.90
2022-09-21T01:23:50.029Z,99.90
2022-09-21T01:26:27.924Z,99.90
2022-09-21T01:29:17.909Z,99.90
2022-09-21T01:31:51.213Z,99.90
2022-09-21T01:34:28.892Z,99.90
2022-09-21T01:37:00.077Z,99.90
2022-09-21T01:41:58.557Z,99.90
2022-09-21T01:44:33.475Z,99.90
2022-09-21T01:47:03.891Z,99.90
2022-09-21T01:49:37.540Z,99.90
2022-09-21T01:52:13.059Z,99.90
2022-09-21T01:54:47.216Z,99.90
2022-09-21T01:57:20.289Z,99.90
2022-09-21T01:59:53.923Z,99.90
2022-09-21T02:02:25.871Z,99.90
2022-09-21T02:04:53.910Z,99.90
2022-09-21T02:07:22.193Z,99.90
2022-09-21T02:09:50.302Z,99.90
2022-09-21T02:12:19.325Z,99.90
2022-09-21T02:14:49.476Z,99.90
2022-09-21T02:17:32.395Z,99.90
2022-09-21T02:20:10.789Z,99.90
2022-09-21T02:22:49.401Z,99.90
2022-09-21T02:25:22.511Z,99.90
2022-09-21T02:27:56.922Z,99.90
2022-09-21T02:30:28.194Z,99.90
2022-09-21T02:33:02.314Z,99.90
2022-09-21T02:35:37.334Z,99.90
2022-09-21T02:38:12.209Z,99.90
2022-09-21T02:40:44.629Z,99.90
2022-09-21T02:43:21.790Z,99.90
2022-09-21T02:45:55.536Z,99.90
2022-09-21T02:48:29.475Z,99.90
2022-09-21T02:51:00.682Z,99.90
2022-09-21T02:53:34.413Z,99.90
2022-09-21T02:56:06.952Z,99.90
2022-09-21T02:58:38.703Z,99.90
2022-09-21T03:06:05.652Z,99.90
2022-09-21T03:11:02.838Z,99.90
2022-09-21T03:13:31.282Z,99.90
2022-09-21T03:16:04.454Z,99.90
2022-09-21T03:18:35.050Z,99.90
2022-09-21T03:21:03.426Z,99.90
2022-09-21T03:23:31.751Z,99.90
2022-09-21T03:28:28.507Z,99.90
2022-09-21T03:30:57.089Z,99.90
2022-09-21T03:33:26.437Z,99.90
2022-09-21T03:40:53.631Z,99.90
2022-09-21T03:43:21.825Z,99.90
2022-09-21T03:45:49.834Z,99.90
2022-09-21T03:48:17.709Z,99.90
2022-09-21T03:50:45.807Z,99.90
2022-09-21T03:55:44.424Z,99.90
2022-09-21T04:00:40.587Z,99.90
2022-09-21T04:03:08.612Z,99.90
2022-09-21T04:05:36.600Z,99.90
2022-09-21T04:13:04.373Z,99.90
2022-09-21T04:15:32.652Z,99.90
2022-09-21T04:18:00.777Z,99.90
2022-09-21T04:20:29.369Z,99.90
2022-09-21T04:23:10.730Z,99.90
2022-09-21T04:31:30.998Z,99.90
2022-09-21T04:36:33.240Z,99.90
2022-09-21T04:39:04.482Z,99.90
2022-09-21T04:46:30.889Z,99.90
2022-09-21T05:04:03.235Z,99.90
2022-09-21T05:06:32.045Z,99.90
2022-09-21T05:09:17.700Z,99.90
2022-09-21T05:14:16.565Z,99.90
2022-09-21T05:16:44.728Z,99.90
2022-09-21T05:21:50.360Z,99.90
2022-09-21T05:31:58.084Z,99.90
2022-09-21T05:34:40.419Z,99.90
2022-09-21T05:37:15.266Z,99.90
2022-09-21T05:39:44.149Z,99.90
2022-09-21T05:44:43.359Z,99.90
2022-09-21T05:47:24.278Z,99.90
2022-09-21T05:50:01.095Z,99.90
2022-09-21T05:52:35.904Z,99.90
2022-09-21T05:55:14.280Z,99.90
2022-09-21T05:57:49.103Z,99.90
2022-09-21T06:00:20.553Z,99.90
2022-09-21T06:03:17.795Z,99.90
2022-09-21T06:05:46.476Z,99.90
2022-09-21T06:13:13.285Z,99.90
2022-09-21T06:15:42.145Z,99.90
2022-09-21T06:23:15.580Z,99.90
2022-09-21T06:25:43.503Z,99.90
2022-09-21T06:28:14.332Z,99.90
2022-09-21T06:30:45.060Z,99.90
2022-09-21T06:33:13.278Z,99.90
2022-09-21T06:35:41.606Z,99.90
2022-09-21T06:38:10.285Z,99.90
2022-09-21T06:40:38.541Z,99.90
2022-09-21T06:43:07.000Z,99.90
2022-09-21T06:48:05.568Z,99.90
2022-09-21T06:50:35.054Z,99.90
2022-09-21T06:53:17.714Z,99.90
2022-09-21T06:58:13.840Z,99.90
2022-09-21T07:00:43.452Z,99.90
2022-09-21T07:05:41.110Z,99.90
2022-09-21T07:10:05.007Z,99.90
2022-09-21T07:10:59.950Z,99.90
2022-09-21T07:13:28.679Z,99.90
2022-09-21T07:15:58.079Z,99.90
2022-09-21T07:18:26.748Z,99.90
2022-09-21T07:20:54.887Z,99.90
2022-09-21T07:25:52.795Z,99.90
2022-09-21T07:35:52.894Z,99.90
2022-09-21T07:38:21.482Z,99.90
2022-09-21T07:43:18.255Z,99.90
2022-09-21T07:45:55.947Z,99.90
2022-09-21T07:50:54.944Z,99.90
2022-09-21T07:55:51.644Z,99.90
2022-09-21T07:58:36.992Z,99.90
2022-09-21T08:01:06.953Z,99.90
2022-09-21T08:03:37.204Z,99.90
2022-09-21T08:06:05.482Z,99.90
2022-09-21T08:11:05.053Z,99.90
2022-09-21T08:21:02.044Z,99.90
2022-09-21T08:23:30.975Z,99.90
2022-09-21T08:26:02.797Z,99.90
2022-09-21T08:28:31.781Z,99.90
2022-09-21T08:31:10.854Z,99.90
2022-09-21T08:36:10.540Z,99.90
2022-09-21T08:38:40.047Z,99.90
2022-09-21T08:41:17.886Z,99.90
2022-09-21T08:43:49.215Z,99.90
2022-09-21T08:46:19.845Z,99.90
2022-09-21T08:48:52.095Z,99.90
2022-09-21T08:51:25.605Z,99.90
2022-09-21T08:53:57.743Z,99.90
2022-09-21T08:56:47.098Z,99.90
2022-09-21T08:59:16.794Z,99.90
2022-09-21T09:01:58.793Z,99.90
2022-09-21T09:04:36.586Z,99.90
2022-09-21T09:07:18.716Z,99.90
2022-09-21T09:10:01.773Z,99.90
2022-09-21T09:12:46.990Z,99.90
2022-09-21T09:15:25.730Z,99.90
2022-09-21T09:18:01.448Z,99.90
2022-09-21T09:20:33.844Z,99.90
2022-09-21T09:23:09.102Z,99.90
2022-09-21T09:25:39.843Z,99.90
2022-09-21T09:28:21.681Z,99.90
2022-09-21T09:30:57.637Z,99.90
2022-09-21T09:33:29.635Z,99.90
2022-09-21T09:36:03.414Z,99.90
2022-09-21T09:38:38.662Z,99.90
2022-09-21T09:41:31.884Z,99.90
2022-09-21T09:44:13.459Z,99.90
2022-09-21T09:46:57.299Z,99.90
2022-09-21T09:49:34.556Z,99.90
2022-09-21T09:52:03.307Z,99.90
2022-09-21T09:54:36.322Z,99.90
2022-09-21T09:57:06.061Z,99.90
2022-09-21T09:59:38.747Z,99.90
2022-09-21T10:02:08.898Z,99.90
2022-09-21T10:07:05.729Z,99.90
2022-09-21T10:12:18.833Z,99.90
2022-09-21T10:14:51.961Z,99.90
2022-09-21T10:17:21.142Z,99.90
2022-09-21T10:22:21.910Z,99.90
2022-09-21T10:24:54.271Z,99.90
2022-09-21T10:27:26.666Z,99.90
2022-09-21T10:29:54.945Z,99.90
2022-09-21T10:32:26.548Z,99.90
2022-09-21T10:35:18.271Z,99.90
2022-09-21T10:37:50.989Z,99.90
2022-09-21T10:40:31.892Z,99.90
2022-09-21T10:43:01.530Z,99.90
2022-09-21T10:45:37.383Z,99.90
2022-09-21T10:48:11.271Z,99.90
2022-09-21T10:50:41.485Z,99.90
2022-09-21T10:53:18.904Z,99.90
2022-09-21T10:56:14.573Z,99.90
2022-09-21T10:59:22.477Z,99.90
2022-09-21T11:01:51.908Z,99.90
2022-09-21T11:04:35.801Z,99.90
2022-09-21T11:07:15.371Z,99.90
2022-09-21T11:09:49.890Z,99.90
2022-09-21T11:12:31.513Z,99.90
2022-09-21T11:18:20.063Z,99.90
2022-09-21T11:20:53.121Z,99.90
2022-09-21T11:23:38.504Z,99.90
2022-09-21T11:26:13.777Z,99.90
2022-09-21T11:28:49.396Z,99.90
2022-09-21T11:31:38.783Z,99.90
2022-09-21T11:34:26.246Z,99.90
2022-09-21T11:37:10.084Z,99.90
2022-09-21T11:39:51.257Z,99.90
2022-09-21T11:42:34.158Z,99.90
2022-09-21T11:45:14.378Z,99.90
2022-09-21T11:47:58.961Z,99.90
2022-09-21T11:50:55.265Z,99.90
2022-09-21T11:53:37.396Z,99.90
2022-09-21T11:56:26.977Z,99.90
2022-09-21T11:59:07.007Z,99.90
2022-09-21T12:01:48.458Z,99.90
2022-09-21T12:04:42.303Z,99.90
2022-09-21T12:07:30.346Z,99.90
2022-09-21T12:10:15.237Z,99.90
2022-09-21T12:12:49.596Z,99.90
2022-09-21T12:15:25.701Z,99.90
2022-09-21T12:18:02.572Z,99.90
2022-09-21T12:20:43.552Z,99.90
2022-09-21T12:23:18.429Z,99.90
2022-09-21T12:25:58.497Z,99.90
2022-09-21T12:29:01.268Z,99.90
2022-09-21T12:34:21.986Z,99.90
2022-09-21T12:37:08.524Z,99.90
2022-09-21T12:39:44.153Z,99.90
2022-09-21T12:42:24.603Z,99.90
2022-09-21T12:44:56.882Z,99.90
2022-09-21T12:47:34.170Z,99.90
2022-09-21T12:50:07.255Z,99.90
2022-09-21T12:52:38.437Z,99.90
2022-09-21T12:55:21.420Z,99.90
2022-09-21T12:58:14.564Z,99.90
2022-09-21T13:00:53.172Z,99.90
2022-09-21T13:03:33.267Z,99.90
2022-09-21T13:06:56.814Z,99.90
2022-09-21T13:15:59.674Z,99.90
2022-09-21T13:21:32.493Z,99.90
2022-09-21T13:25:03.183Z,99.90
2022-09-21T13:32:22.755Z,99.90
2022-09-21T13:34:52.494Z,99.90
2022-09-21T13:37:31.842Z,99.90
2022-09-21T13:52:18.018Z,99.90
2022-09-21T13:55:05.943Z,99.90
2022-09-21T13:58:18.974Z,99.90
2022-09-21T14:00:59.377Z,99.90
2022-09-21T14:03:36.786Z,99.90
2022-09-21T14:06:10.313Z,99.90
2022-09-21T14:08:43.211Z,99.90
2022-09-21T14:11:23.963Z,99.90
2022-09-21T14:14:06.388Z,99.90
2022-09-21T14:17:05.772Z,99.90
2022-09-21T14:20:30.306Z,99.90
2022-09-21T14:23:30.027Z,99.90
2022-09-21T14:28:42.063Z,98.70
2022-09-21T14:31:19.586Z,98.70
2022-09-21T14:33:54.366Z,99.00
2022-09-21T14:36:31.626Z,99.10
2022-09-21T14:39:06.842Z,99.20
2022-09-21T14:41:47.902Z,97.90
2022-09-21T14:44:22.819Z,97.30
2022-09-21T14:47:12.105Z,96.60
2022-09-21T14:50:06.459Z,96.60
2022-09-21T14:52:50.302Z,94.80
2022-09-21T14:55:27.666Z,94.80
2022-09-21T14:58:21.455Z,95.00
2022-09-21T15:01:22.112Z,93.40
2022-09-21T15:04:01.863Z,93.70
2022-09-21T15:06:58.374Z,93.00
2022-09-21T15:10:17.780Z,93.10
2022-09-21T15:12:54.375Z,92.50
2022-09-21T15:15:35.845Z,92.60
2022-09-21T15:18:21.511Z,93.20
2022-09-21T15:21:01.982Z,93.60
2022-09-21T15:26:09.607Z,94.00
2022-09-21T15:33:54.380Z,95.00
2022-09-21T15:36:24.990Z,93.80
2022-09-21T15:38:54.144Z,93.60
2022-09-21T15:41:41.264Z,94.10
2022-09-21T15:44:16.308Z,94.40
2022-09-21T15:46:47.323Z,94.10
2022-09-21T15:49:22.140Z,94.10
2022-09-21T15:51:56.722Z,94.60
2022-09-21T15:54:32.916Z,95.00
2022-09-21T15:57:08.032Z,95.40
2022-09-21T16:02:13.478Z,96.90
2022-09-21T16:04:49.573Z,97.20
2022-09-21T16:07:28.282Z,97.20
2022-09-21T16:09:56.817Z,97.30
2022-09-21T16:12:40.954Z,97.60
2022-09-21T16:15:24.049Z,98.50
2022-09-21T16:18:02.999Z,98.90
2022-09-21T16:20:45.791Z,98.80
2022-09-21T16:23:17.566Z,98.80
2022-09-21T16:28:44.962Z,99.90
2022-09-21T16:31:38.946Z,99.90
2022-09-21T16:34:22.905Z,99.90
2022-09-21T16:37:26.442Z,99.90
2022-09-21T16:42:46.975Z,99.90
2022-09-21T16:45:22.975Z,99.90
2022-09-21T16:50:25.966Z,99.90
2022-09-21T17:00:49.054Z,99.90
2022-09-21T17:08:50.808Z,99.90
2022-09-21T17:11:25.964Z,99.90
2022-09-21T17:19:20.322Z,99.90
2022-09-21T17:21:59.819Z,99.90
2022-09-21T17:27:52.965Z,99.90
2022-09-21T17:32:55.891Z,99.90
2022-09-21T17:35:33.523Z,99.90
2022-09-21T17:40:43.744Z,99.90
2022-09-21T17:43:37.337Z,99.90
2022-09-21T17:46:13.482Z,99.90
2022-09-21T17:48:42.782Z,99.90
2022-09-21T17:54:01.231Z,99.90
2022-09-21T17:56:39.547Z,99.90
2022-09-21T17:59:25.496Z,99.90
2022-09-21T18:01:54.231Z,99.90
2022-09-21T18:04:22.947Z,99.90
2022-09-21T18:06:51.288Z,99.90
2022-09-21T18:09:19.769Z,99.90
2022-09-21T18:12:14.865Z,99.90
2022-09-21T18:14:58.253Z,99.90
2022-09-21T18:17:47.454Z,99.90
2022-09-21T18:20:28.572Z,99.90
2022-09-21T18:23:05.840Z,99.90
2022-09-21T18:25:47.528Z,99.90
2022-09-21T18:28:23.705Z,99.90
2022-09-21T18:31:24.651Z,99.90
2022-09-21T18:37:30.413Z,99.90
2022-09-21T18:40:09.006Z,99.90
2022-09-21T18:42:51.425Z,99.90
2022-09-21T18:45:25.907Z,99.90
2022-09-21T18:48:12.503Z,99.90
2022-09-21T18:50:51.799Z,99.90
2022-09-21T18:53:26.419Z,99.90
2022-09-21T18:55:55.768Z,99.90
2022-09-21T18:58:24.508Z,99.90
2022-09-21T19:00:56.467Z,99.90
2022-09-21T19:03:26.884Z,99.90
2022-09-21T19:06:34.173Z,99.90
2022-09-21T19:09:11.602Z,99.90
2022-09-21T19:11:46.595Z,99.90
2022-09-21T19:14:23.590Z,99.90
2022-09-21T19:17:06.460Z,99.90
2022-09-21T19:19:46.183Z,99.90
2022-09-21T19:22:17.353Z,99.90
2022-09-21T19:24:56.099Z,99.90
2022-09-21T19:27:32.135Z,99.90
2022-09-21T19:30:06.168Z,99.90
2022-09-21T19:32:42.497Z,99.90
2022-09-21T19:35:21.588Z,99.90
2022-09-21T19:37:51.967Z,99.90
2022-09-21T19:40:22.480Z,99.90
2022-09-21T19:43:08.074Z,99.90
2022-09-21T19:45:48.677Z,99.90
2022-09-21T19:48:17.762Z,99.90
2022-09-21T19:50:54.599Z,99.90
2022-09-21T19:53:40.705Z,99.90
2022-09-21T19:56:29.799Z,99.90
2022-09-21T19:59:15.856Z,99.90
2022-09-21T20:01:52.611Z,99.90
2022-09-21T20:04:28.020Z,99.90
2022-09-21T20:07:04.989Z,99.90
2022-09-21T20:09:38.151Z,99.90
2022-09-21T20:12:15.197Z,99.90
2022-09-21T20:14:48.278Z,99.90
2022-09-21T20:17:22.070Z,99.90
2022-09-21T20:19:55.813Z,99.90
2022-09-21T20:22:33.622Z,99.90
2022-09-21T20:25:06.950Z,99.90
2022-09-21T20:27:38.964Z,99.90
2022-09-21T20:30:10.068Z,99.90
2022-09-21T20:32:42.385Z,99.90
2022-09-21T20:35:16.008Z,99.90
2022-09-21T20:37:45.866Z,99.90
2022-09-21T20:40:14.857Z,99.90
2022-09-21T20:42:43.132Z,99.90
2022-09-21T20:45:12.810Z,99.90
2022-09-21T20:47:40.895Z,99.90
2022-09-21T20:50:11.592Z,99.90
2022-09-21T20:52:41.451Z,99.90
2022-09-21T20:55:13.684Z,99.90
2022-09-21T20:57:41.794Z,99.90
2022-09-21T21:00:12.419Z,99.90
2022-09-21T21:05:11.187Z,99.90
2022-09-21T21:07:41.069Z,99.90
2022-09-21T21:10:13.307Z,99.90
2022-09-21T21:15:11.331Z,99.90
2022-09-21T21:17:39.563Z,99.90
2022-09-21T21:20:08.689Z,99.90
2022-09-21T21:25:06.352Z,99.90
2022-09-21T21:32:32.984Z,99.90
2022-09-21T21:39:58.490Z,99.90
2022-09-21T21:42:28.777Z,99.90
2022-09-21T21:44:58.853Z,99.90
2022-09-21T21:47:39.262Z,99.90
2022-09-21T21:55:05.103Z,99.90
2022-09-21T22:02:32.359Z,99.90
2022-09-21T22:07:28.761Z,99.90
2022-09-21T22:22:22.177Z,99.90
2022-09-21T22:24:50.117Z,99.90
2022-09-21T22:27:18.024Z,99.90
2022-09-21T22:32:14.255Z,99.90
2022-09-21T22:37:11.811Z,99.90
2022-09-21T22:42:08.302Z,99.90
2022-09-21T22:44:36.339Z,99.90
2022-09-21T22:47:04.666Z,99.90
2022-09-21T22:54:30.994Z,99.90
2022-09-21T22:56:59.012Z,99.90
2022-09-21T22:59:27.042Z,99.90
2022-09-21T23:01:56.524Z,99.90
2022-09-21T23:04:24.698Z,99.90
2022-09-21T23:06:52.636Z,99.90
2022-09-21T23:09:22.689Z,99.90
2022-09-21T23:11:55.143Z,99.90
2022-09-21T23:14:24.176Z,99.90
2022-09-21T23:16:53.337Z,99.90
2022-09-21T23:19:21.413Z,99.90
2022-09-21T23:21:50.975Z,99.90
2022-09-21T23:24:21.919Z,99.90
2022-09-21T23:26:51.433Z,99.90
2022-09-21T23:29:19.503Z,99.90
2022-09-21T23:31:47.570Z,99.90
2022-09-21T23:34:16.417Z,99.90
2022-09-21T23:36:46.433Z,99.90
2022-09-21T23:39:16.058Z,99.90
2022-09-21T23:41:45.988Z,99.90
2022-09-21T23:44:13.925Z,99.90
2022-09-21T23:46:42.714Z,99.90
2022-09-21T23:49:11.154Z,99.90
2022-09-21T23:51:39.688Z,99.90
2022-09-21T23:56:36.212Z,99.90
